Time;durP1;ratioP1;P1;durP2;ratioP2;P2;SDS_P1;SDS_P2;PMS_P1;PMS_P2;Temp;Humidity;BMP_temperature;BMP_pressure;BME280_temperature;BME280_humidity;BME280_pressure;Samples;Min_cycle;Max_cycle;Signal;HPM_P1;HPM_P2
2021/04/04 00:02:45;;;;;;;;;;;4.00;87.50;;;2.65;63.04;96210.06;10425319;28;1980;-86
2021/04/04 00:07:47;;;;;;;;;;;3.90;88.20;;;2.55;63.29;96205.25;10413298;28;2001;-85
2021/04/04 00:12:49;;;;;;;;;;;3.80;88.30;;;2.47;63.61;96202.00;10435391;28;1646;-85
2021/04/04 00:17:51;;;;;;;;;;;4.40;89.00;;;2.39;63.88;96200.41;10408341;28;1870;-85
2021/04/04 00:22:52;;;;;;;;;;;3.70;89.00;;;2.25;64.63;96204.16;10401550;28;1830;-86
2021/04/04 00:27:54;;;;;;;;;;;3.50;89.50;;;2.17;64.75;96195.41;10408615;28;2122;-84
2021/04/04 00:32:56;;;;;;;;;;;3.40;90.10;;;2.10;64.98;96191.97;10428435;28;1913;-85
2021/04/04 00:37:58;;;;;;;;;;;4.30;90.80;;;2.05;65.39;96197.09;10415528;28;1988;-86
2021/04/04 00:42:59;;;;;;;;;;;3.50;90.80;;;1.98;65.62;96195.50;10427804;28;1943;-86
2021/04/04 00:48:03;;;;;;;;;;;4.30;91.70;;;1.92;66.27;96199.78;10418637;28;1970;-85
2021/04/04 00:53:05;;;;;;;;;;;4.90;92.40;;;1.79;66.57;96189.22;10431278;28;1953;-84
2021/04/04 00:58:07;;;;;;;;;;;3.10;91.90;;;1.76;66.91;96194.94;10440395;28;1896;-85
2021/04/04 01:03:09;;;;;;;;;;;3.00;92.40;;;1.72;67.55;96188.41;10427310;28;3296;-84
2021/04/04 01:08:11;;;;;;;;;;;3.60;93.20;;;1.65;67.55;96187.63;10421184;28;2189;-85
2021/04/04 01:13:13;;;;;;;;;;;3.50;93.60;;;1.61;67.81;96196.00;10425413;28;2123;-83
2021/04/04 01:18:15;;;;;;;;;;;4.00;94.10;;;1.57;67.66;96186.81;10403889;28;2112;-84
2021/04/04 01:23:16;;;;;;;;;;;3.30;94.00;;;1.50;68.06;96186.00;10430682;28;2068;-85
2021/04/04 01:28:18;;;;;;;;;;;3.30;94.40;;;1.46;68.20;96187.44;10408613;28;2040;-86
2021/04/04 01:33:20;;;;;;;;;;;2.60;94.30;;;1.43;68.55;96192.34;10403600;28;2415;-84
2021/04/04 01:38:23;;;;;;;;;;;2.70;95.00;;;1.35;69.39;96188.09;10403430;28;2100;-85
2021/04/04 01:43:24;;;;;;;;;;;2.90;95.50;;;1.30;69.23;96187.88;10403256;28;2416;-84
2021/04/04 01:48:26;;;;;;;;;;;2.70;95.70;;;1.29;69.78;96192.38;10424786;28;1962;-85
2021/04/04 01:53:28;;;;;;;;;;;2.50;96.50;;;1.16;70.00;96191.56;10435386;28;2057;-84
2021/04/04 01:58:30;;;;;;;;;;;2.00;96.30;;;1.13;70.46;96194.59;10430063;28;2239;-85
2021/04/04 02:03:32;;;;;;;;;;;2.20;96.90;;;1.00;70.56;96180.34;10404977;28;2129;-85
2021/04/04 02:08:34;;;;;;;;;;;2.40;97.30;;;0.95;71.07;96177.47;10437272;28;2056;-83
2021/04/04 02:13:36;;;;;;;;;;;2.70;98.00;;;0.99;71.38;96183.19;10417925;28;2190;-84
2021/04/04 02:18:38;;;;;;;;;;;2.50;98.70;;;0.88;71.18;96184.63;10435595;28;2069;-84
2021/04/04 02:23:41;;;;;;;;;;;1.90;99.90;;;0.86;71.28;96186.66;10424453;28;2110;-86
2021/04/04 02:28:43;;;;;;;;;;;2.60;99.00;;;0.84;71.79;96178.13;10431776;28;2082;-86
2021/04/04 02:33:44;;;;;;;;;;;2.10;99.10;;;0.76;71.83;96176.47;10423450;28;2257;-84
2021/04/04 02:38:46;;;;;;;;;;;2.00;99.00;;;0.69;72.21;96175.63;10422038;28;2203;-86
2021/04/04 02:43:48;;;;;;;;;;;2.10;99.50;;;0.69;72.74;96177.47;10416899;28;1777;-85
2021/04/04 02:48:50;;;;;;;;;;;2.10;99.90;;;0.64;72.38;96178.09;10403199;28;2017;-85
2021/04/04 02:53:52;;;;;;;;;;;1.90;99.90;;;0.64;73.15;96175.44;10424403;28;2239;-85
2021/04/04 02:58:54;;;;;;;;;;;2.10;99.90;;;0.66;72.65;96173.41;10435933;28;2077;-84
2021/04/04 03:03:56;;;;;;;;;;;1.80;99.90;;;0.58;73.15;96170.97;10429379;28;1646;-86
2021/04/04 03:08:57;;;;;;;;;;;1.30;99.90;;;0.52;73.25;96169.13;10448878;28;2097;-85
2021/04/04 03:13:59;;;;;;;;;;;1.80;99.90;;;0.46;73.59;96178.66;10438256;28;2141;-83
2021/04/04 03:19:03;;;;;;;;;;;1.80;99.90;;;0.48;73.72;96173.97;10447282;28;2144;-84
2021/04/04 03:24:05;;;;;;;;;;;1.60;99.90;;;0.50;73.55;96168.47;10453912;28;2083;-84
2021/04/04 03:29:07;;;;;;;;;;;1.80;99.90;;;0.47;73.52;96163.59;10432232;28;2163;-85
2021/04/04 03:34:09;;;;;;;;;;;1.70;99.90;;;0.52;73.59;96166.47;10407489;28;1947;-82
2021/04/04 03:39:11;;;;;;;;;;;1.70;99.90;;;0.48;73.50;96158.13;10405795;28;2125;-86
2021/04/04 03:44:12;;;;;;;;;;;1.70;99.90;;;0.44;72.67;96158.72;10427386;28;2040;-85
2021/04/04 03:49:14;;;;;;;;;;;1.70;99.90;;;0.42;73.27;96172.13;10401444;28;1906;-85
2021/04/04 03:54:16;;;;;;;;;;;1.50;99.90;;;0.45;73.82;96171.75;10396950;28;2087;-85
2021/04/04 03:59:18;;;;;;;;;;;1.60;99.90;;;0.42;74.11;96164.19;10415672;28;1902;-84
2021/04/04 04:04:20;;;;;;;;;;;1.50;99.90;;;0.37;74.29;96163.97;10408564;28;2167;-84
2021/04/04 04:09:22;;;;;;;;;;;1.50;99.90;;;0.30;74.06;96167.63;10415323;28;2163;-85
2021/04/04 04:14:24;;;;;;;;;;;1.50;99.90;;;0.23;73.91;96173.72;10425164;28;1981;-83
2021/04/04 04:19:26;;;;;;;;;;;1.40;99.90;;;0.21;75.08;96169.66;10435517;28;2034;-84
2021/04/04 04:24:28;;;;;;;;;;;1.40;99.90;;;0.22;74.48;96173.91;10431867;28;2047;-83
2021/04/04 04:29:29;;;;;;;;;;;1.30;99.90;;;0.19;74.27;96167.22;10440395;28;1957;-85
2021/04/04 04:34:31;;;;;;;;;;;1.30;99.90;;;0.17;74.89;96155.19;10424409;28;2139;-85
2021/04/04 04:39:33;;;;;;;;;;;2.10;99.90;;;0.16;74.46;96161.50;10400846;28;2057;-84
2021/04/04 04:44:35;;;;;;;;;;;1.20;99.90;;;0.16;74.50;96154.38;10391124;28;1883;-85
2021/04/04 04:49:37;;;;;;;;;;;1.40;99.90;;;0.15;74.14;96155.41;10414000;28;2076;-85
2021/04/04 04:54:39;;;;;;;;;;;1.40;99.90;;;0.23;73.76;96157.03;10390975;28;2108;-85
2021/04/04 04:59:44;;;;;;;;;;;1.60;99.90;;;0.37;74.07;96150.75;10416245;28;1885;-85
2021/04/04 05:04:47;;;;;;;;;;;1.10;99.90;;;0.47;73.46;96147.75;10406583;28;2211;-84
2021/04/04 05:09:49;;;;;;;;;;;1.50;99.90;;;0.64;72.97;96161.41;10415990;28;2140;-85
2021/04/04 05:14:51;;;;;;;;;;;1.50;99.90;;;0.91;72.41;96165.69;10413610;28;2458;-85
2021/04/04 05:19:53;;;;;;;;;;;1.90;99.90;;;1.25;70.16;96156.72;10426029;28;1953;-84
2021/04/04 05:24:54;;;;;;;;;;;2.30;99.90;;;1.18;70.70;96160.38;10409307;28;2015;-85
2021/04/04 05:29:56;;;;;;;;;;;4.00;99.90;;;1.17;70.84;96158.75;10436797;28;2016;-85
2021/04/04 05:34:58;;;;;;;;;;;2.60;99.90;;;1.23;71.05;96163.25;10410325;28;2168;-84
2021/04/04 05:40:00;;;;;;;;;;;3.40;99.90;;;1.58;70.02;96163.78;10436225;28;2105;-85
2021/04/04 05:45:05;;;;;;;;;;;2.40;99.90;;;2.19;67.06;96162.56;10417331;28;2084;-86
2021/04/04 05:50:07;;;;;;;;;;;2.70;99.90;;;2.63;64.62;96164.38;10418376;28;2040;-85
2021/04/04 05:55:09;;;;;;;;;;;5.00;99.90;;;2.75;63.76;96175.94;10434097;28;2163;-85
2021/04/04 06:00:11;;;;;;;;;;;5.20;98.00;;;2.98;63.07;96170.84;10425290;28;2009;-84
2021/04/04 06:05:13;;;;;;;;;;;4.20;96.50;;;3.31;61.04;96174.25;10429263;28;2135;-84
2021/04/04 06:10:17;;;;;;;;;;;4.10;94.70;;;3.41;61.05;96178.06;10407939;28;2470;-83
2021/04/04 06:15:19;;;;;;;;;;;4.70;93.80;;;3.66;60.67;96170.03;10421667;28;2136;-84
2021/04/04 06:20:29;;;;;;;;;;;4.40;93.30;;;3.90;58.75;96172.88;10426256;28;2219;-84
2021/04/04 06:25:30;;;;;;;;;;;5.50;92.60;;;4.30;58.83;96167.88;10430952;28;2279;-82
2021/04/04 06:30:49;;;;;;;;;;;5.40;92.20;;;4.50;57.60;96162.28;10447536;28;2195;-83
2021/04/04 06:35:52;;;;;;;;;;;5.10;91.00;;;4.57;56.08;96168.34;10414458;28;2041;-84
2021/04/04 06:40:54;;;;;;;;;;;5.30;89.00;;;4.52;55.71;96168.22;10401274;28;2045;-85
2021/04/04 06:45:56;;;;;;;;;;;5.70;88.00;;;4.77;55.07;96155.56;10421483;28;2199;-85
2021/04/04 06:50:58;;;;;;;;;;;6.20;87.70;;;5.00;54.83;96156.66;10425684;28;1985;-85
2021/04/04 06:56:00;;;;;;;;;;;5.70;87.00;;;5.00;54.07;96154.00;10430339;28;2057;-84
2021/04/04 07:01:04;;;;;;;;;;;5.90;86.00;;;5.31;53.12;96160.88;10417786;28;2208;-87
2021/04/04 07:06:06;;;;;;;;;;;6.00;85.10;;;5.58;53.16;96155.88;10463302;28;1929;-85
2021/04/04 07:11:08;;;;;;;;;;;6.20;85.10;;;5.67;52.59;96166.00;10453942;28;1904;-85
2021/04/04 07:16:10;;;;;;;;;;;6.40;84.30;;;5.87;52.23;96160.28;10456475;28;2115;-84
2021/04/04 07:21:12;;;;;;;;;;;6.60;83.60;;;6.12;50.77;96153.88;10435705;28;1764;-85
2021/04/04 07:26:13;;;;;;;;;;;6.80;82.70;;;6.23;51.30;96161.03;10447312;28;2049;-84
2021/04/04 07:31:16;;;;;;;;;;;6.90;82.50;;;6.59;49.57;96159.88;10436376;28;2084;-85
2021/04/04 07:36:18;;;;;;;;;;;7.30;81.10;;;6.34;49.71;96160.19;10451749;28;1997;-85
2021/04/04 07:41:25;;;;;;;;;;;7.40;80.40;;;7.02;48.56;96151.31;10435667;28;1451;-85
2021/04/04 07:46:27;;;;;;;;;;;7.60;80.50;;;7.23;48.12;96147.09;10423161;28;1951;-83
2021/04/04 07:51:29;;;;;;;;;;;8.10;78.90;;;7.66;46.42;96155.50;10410323;28;1974;-82
2021/04/04 07:56:31;;;;;;;;;;;8.70;78.10;;;7.92;45.44;96148.63;10422515;28;2046;-84
2021/04/04 08:01:33;;;;;;;;;;;8.80;76.30;;;7.93;43.32;96151.06;10413017;28;1974;-82
2021/04/04 08:06:35;;;;;;;;;;;9.00;72.90;;;8.29;42.21;96149.66;10399841;28;1891;-84
2021/04/04 08:11:37;;;;;;;;;;;9.10;72.40;;;8.44;40.41;96153.59;10415173;28;1729;-84
2021/04/04 08:16:39;;;;;;;;;;;10.10;71.10;;;8.00;38.43;96154.38;10401651;28;1391;-84
2021/04/04 08:21:41;;;;;;;;;;;9.00;67.30;;;8.05;38.21;96157.13;10401536;28;1557;-84
2021/04/04 08:26:43;;;;;;;;;;;9.10;66.20;;;7.68;38.42;96158.72;10399597;28;1871;-84
2021/04/04 08:31:45;;;;;;;;;;;9.00;64.90;;;7.63;39.20;96150.63;10399652;28;1932;-84
2021/04/04 08:36:47;;;;;;;;;;;8.70;65.60;;;8.06;39.57;96156.06;10402748;28;2104;-86
2021/04/04 08:41:49;;;;;;;;;;;8.90;66.80;;;7.54;38.82;96145.69;10425867;28;1945;-84
2021/04/04 08:46:51;;;;;;;;;;;8.90;65.00;;;7.84;38.52;96152.56;10437237;28;1985;-85
2021/04/04 08:51:53;;;;;;;;;;;8.80;65.10;;;7.80;37.84;96146.06;10426579;28;3383;-85
2021/04/04 08:56:55;;;;;;;;;;;8.80;64.20;;;7.52;38.85;96147.81;10405984;28;2405;-86
2021/04/04 09:01:57;;;;;;;;;;;8.70;64.90;;;7.30;38.74;96154.94;10421801;28;2425;-86
2021/04/04 09:06:59;;;;;;;;;;;8.60;64.10;;;7.08;38.62;96154.88;10427817;28;1986;-85
2021/04/04 09:12:03;;;;;;;;;;;8.30;63.90;;;7.24;39.46;96147.91;10441294;28;1985;-85
2021/04/04 09:17:05;;;;;;;;;;;8.10;64.60;;;8.29;37.06;96144.28;10448738;28;1921;-85
2021/04/04 09:22:07;;;;;;;;;;;8.70;64.40;;;8.59;35.44;96146.56;10450880;28;1893;-85
2021/04/04 09:27:09;;;;;;;;;;;9.40;62.00;;;9.18;34.87;96141.22;10439001;28;3360;-85
2021/04/04 09:32:11;;;;;;;;;;;9.90;60.80;;;9.86;33.73;96135.22;10444178;28;1983;-85
2021/04/04 09:37:13;;;;;;;;;;;10.90;60.20;;;10.03;30.86;96139.38;10437946;28;1688;-85
2021/04/04 09:42:15;;;;;;;;;;;11.00;56.10;;;10.23;30.95;96136.00;10433822;28;1965;-84
2021/04/04 09:47:18;;;;;;;;;;;11.20;55.30;;;10.18;30.67;96138.66;10454544;28;1982;-85
2021/04/04 09:52:20;;;;;;;;;;;11.50;54.00;;;10.79;29.35;96130.81;10449855;28;1981;-84
2021/04/04 09:57:21;;;;;;;;;;;11.50;54.00;;;11.00;29.47;96122.75;10435567;28;2071;-83
2021/04/04 10:02:23;;;;;;;;;;;11.90;54.00;;;9.94;30.77;96130.19;10418866;28;1941;-86
2021/04/04 10:07:25;;;;;;;;;;;11.50;53.40;;;10.63;29.78;96122.97;10423820;28;2068;-87
2021/04/04 10:12:27;;;;;;;;;;;11.50;53.40;;;10.68;30.75;96121.09;10407301;28;1549;-86
2021/04/04 10:17:29;;;;;;;;;;;11.70;53.90;;;9.51;32.09;96111.69;10423751;28;1480;-86
2021/04/04 10:22:31;;;;;;;;;;;10.90;54.30;;;9.71;31.95;96109.91;10415739;28;1408;-86
2021/04/04 10:27:33;;;;;;;;;;;10.60;55.20;;;9.38;32.08;96100.31;10419066;28;2373;-86
2021/04/04 10:32:35;;;;;;;;;;;10.40;54.90;;;9.49;31.48;96098.53;10434295;28;1396;-86
2021/04/04 10:37:37;;;;;;;;;;;10.40;54.50;;;9.54;31.15;96092.34;10408718;28;1660;-84
2021/04/04 10:42:39;;;;;;;;;;;10.70;53.90;;;8.92;32.43;96093.78;10428361;28;4100;-84
2021/04/04 10:47:40;;;;;;;;;;;10.10;54.60;;;8.57;33.71;96076.31;10458130;28;1887;-84
2021/04/04 10:52:42;;;;;;;;;;;9.80;55.40;;;8.46;33.84;96079.97;10442712;28;1992;-85
2021/04/04 10:57:44;;;;;;;;;;;9.50;55.90;;;8.53;33.28;96075.22;10423902;28;1300;-84
2021/04/04 11:02:46;;;;;;;;;;;9.60;55.20;;;8.96;31.92;96068.06;10450735;28;2033;-85
2021/04/04 11:07:48;;;;;;;;;;;10.50;54.60;;;9.14;31.86;96056.16;10430738;28;1977;-84
2021/04/04 11:12:50;;;;;;;;;;;10.10;53.80;;;9.62;30.36;96054.31;10402833;28;2351;-84
2021/04/04 11:17:51;;;;;;;;;;;10.50;52.90;;;9.43;29.37;96053.94;10413986;28;1929;-83
2021/04/04 11:22:53;;;;;;;;;;;10.70;51.40;;;9.76;29.46;96047.41;10392761;28;2081;-82
2021/04/04 11:27:55;;;;;;;;;;;10.70;52.00;;;9.33;29.83;96043.13;10414808;28;1926;-84
2021/04/04 11:32:57;;;;;;;;;;;10.50;52.00;;;9.21;30.22;96043.31;10417317;28;2000;-83
2021/04/04 11:37:59;;;;;;;;;;;10.50;51.90;;;9.55;31.08;96033.09;10415625;28;2052;-84
2021/04/04 11:43:03;;;;;;;;;;;10.70;52.50;;;9.06;30.59;96040.53;10415912;28;2128;-83
2021/04/04 11:48:05;;;;;;;;;;;10.50;52.20;;;9.32;30.56;96030.78;10426710;28;2040;-84
2021/04/04 11:53:07;;;;;;;;;;;10.40;52.40;;;9.10;30.65;96018.31;10398442;28;1536;-83
2021/04/04 11:58:09;;;;;;;;;;;10.30;52.20;;;8.68;32.43;95996.03;10418084;28;2048;-83
2021/04/04 12:03:11;;;;;;;;;;;9.90;53.00;;;9.06;30.93;96000.31;10419916;28;1709;-81
2021/04/04 12:08:13;;;;;;;;;;;10.00;52.50;;;9.56;30.13;96002.50;10425779;28;2064;-85
2021/04/04 12:13:15;;;;;;;;;;;10.50;52.10;;;9.79;29.66;95995.84;10407957;28;1843;-84
2021/04/04 12:18:17;;;;;;;;;;;10.70;51.80;;;9.94;29.23;95987.06;10415779;28;2110;-83
2021/04/04 12:23:19;;;;;;;;;;;11.00;51.30;;;9.86;29.79;95992.94;10428632;28;1566;-83
2021/04/04 12:28:21;;;;;;;;;;;11.00;51.50;;;9.73;29.46;95987.00;10429024;28;1910;-84
2021/04/04 12:33:25;;;;;;;;;;;11.00;50.80;;;9.99;29.91;95979.03;10420530;28;1555;-85
2021/04/04 12:38:27;;;;;;;;;;;11.00;51.80;;;10.26;29.23;95974.28;10425486;28;1645;-83
2021/04/04 12:43:29;;;;;;;;;;;11.30;51.00;;;10.52;28.71;95972.41;10428721;28;1619;-84
2021/04/04 12:48:31;;;;;;;;;;;11.50;50.60;;;10.57;28.64;95958.19;10410622;28;2203;-84
2021/04/04 12:53:35;;;;;;;;;;;11.50;50.70;;;10.98;28.29;95953.56;10426757;28;1737;-85
2021/04/04 12:58:37;;;;;;;;;;;11.80;50.20;;;11.33;27.31;95955.41;10408210;28;1929;-84
2021/04/04 13:03:41;;;;;;;;;;;12.20;50.20;;;11.13;27.43;95955.41;10423871;28;2109;-83
2021/04/04 13:08:44;;;;;;;;;;;12.20;48.80;;;11.41;27.09;95942.44;10432345;28;1887;-84
2021/04/04 13:13:47;;;;;;;;;;;12.20;48.80;;;10.40;28.43;95944.19;10422996;28;1958;-84
2021/04/04 13:18:51;;;;;;;;;;;11.80;48.70;;;10.24;28.61;95936.13;10411032;28;2131;-84
2021/04/04 13:23:53;;;;;;;;;;;11.50;49.30;;;10.22;29.05;95930.16;10436296;28;1910;-85
2021/04/04 13:28:55;;;;;;;;;;;11.40;49.70;;;10.17;28.69;95932.84;10428714;28;1951;-84
2021/04/04 13:33:57;;;;;;;;;;;11.40;49.60;;;10.26;28.20;95925.91;10424432;28;1713;-84
2021/04/04 13:38:59;;;;;;;;;;;11.20;49.30;;;10.64;27.77;95931.03;10424701;28;1965;-84
2021/04/04 13:44:05;;;;;;;;;;;11.50;49.00;;;10.68;27.63;95915.97;10447784;28;1874;-83
2021/04/04 13:49:07;;;;;;;;;;;11.60;49.00;;;10.62;28.73;95907.09;10423885;28;1993;-81
2021/04/04 13:54:09;;;;;;;;;;;11.80;49.20;;;10.34;29.01;95910.34;10412493;28;1402;-83
2021/04/04 13:59:11;;;;;;;;;;;11.60;49.60;;;10.38;29.82;95906.84;10433615;28;1808;-81
2021/04/04 14:04:13;;;;;;;;;;;11.30;50.70;;;10.49;29.40;95900.38;10441489;28;1678;-83
2021/04/04 14:09:14;;;;;;;;;;;11.50;50.50;;;10.84;28.90;95898.75;10440710;28;1899;-83
2021/04/04 14:14:16;;;;;;;;;;;11.60;49.90;;;10.89;28.66;95896.03;10441434;28;1602;-86
2021/04/04 14:19:18;;;;;;;;;;;12.00;49.40;;;10.97;28.96;95883.91;10432208;28;1230;-83
2021/04/04 14:24:20;;;;;;;;;;;11.90;50.30;;;10.83;29.08;95879.13;10411471;28;1674;-85
2021/04/04 14:29:22;;;;;;;;;;;12.00;49.60;;;10.75;28.85;95876.16;10426829;28;1879;-81
2021/04/04 14:34:24;;;;;;;;;;;11.80;49.60;;;10.24;28.97;95878.88;10420765;28;1784;-84
2021/04/04 14:39:26;;;;;;;;;;;11.40;49.50;;;10.19;28.69;95870.81;10434273;28;1975;-84
2021/04/04 14:44:28;;;;;;;;;;;11.30;49.50;;;10.25;29.04;95865.19;10406974;28;1873;-86
2021/04/04 14:49:30;;;;;;;;;;;11.20;49.70;;;10.15;29.64;95867.03;10424889;28;2038;-86
2021/04/04 14:54:31;;;;;;;;;;;11.30;50.00;;;9.88;30.09;95851.19;10450590;28;1841;-86
2021/04/04 14:59:34;;;;;;;;;;;11.10;50.30;;;9.85;30.26;95855.19;10448193;28;1917;-86
2021/04/04 15:04:37;;;;;;;;;;;10.90;50.40;;;9.95;30.35;95852.53;10405968;28;1981;-86
2021/04/04 15:09:39;;;;;;;;;;;10.90;51.10;;;9.99;30.30;95845.56;10414748;28;2050;-85
2021/04/04 15:14:41;;;;;;;;;;;11.00;50.70;;;10.08;30.42;95840.44;10385465;28;1985;-86
2021/04/04 15:19:43;;;;;;;;;;;11.00;50.60;;;10.05;30.31;95830.22;10418038;28;1933;-87
2021/04/04 15:24:44;;;;;;;;;;;11.00;50.70;;;10.04;30.38;95820.56;10419704;28;1963;-87
2021/04/04 15:29:46;;;;;;;;;;;11.10;50.70;;;9.99;30.08;95815.22;10422222;28;1973;-85
2021/04/04 15:34:48;;;;;;;;;;;11.10;50.70;;;9.70;30.16;95806.88;10454028;28;1909;-84
2021/04/04 15:39:50;;;;;;;;;;;10.90;50.50;;;9.61;30.56;95811.97;10454252;28;1827;-86
2021/04/04 15:44:51;;;;;;;;;;;10.70;51.20;;;9.56;30.85;95801.22;10450653;28;1962;-87
2021/04/04 15:49:53;;;;;;;;;;;10.60;51.20;;;9.48;31.33;95791.00;10425025;28;1974;-87
2021/04/04 15:54:55;;;;;;;;;;;10.60;51.30;;;9.54;30.90;95795.28;10424060;28;2028;-86
2021/04/04 15:59:57;;;;;;;;;;;10.60;51.50;;;9.35;31.18;95797.69;10417488;28;2020;-88
2021/04/04 16:04:59;;;;;;;;;;;10.50;51.50;;;9.35;32.11;95792.34;10402454;28;1941;-88
2021/04/04 16:10:00;;;;;;;;;;;10.40;52.40;;;9.18;32.39;95787.19;10410358;28;1945;-86
2021/04/04 16:15:05;;;;;;;;;;;10.30;52.40;;;9.23;32.56;95772.19;10418743;28;1936;-88
2021/04/04 16:20:07;;;;;;;;;;;10.20;52.30;;;9.19;32.00;95772.69;10426021;28;2278;-87
2021/04/04 16:25:08;;;;;;;;;;;10.20;52.60;;;9.16;32.72;95767.88;10426918;28;2450;-88
2021/04/04 16:30:20;;;;;;;;;;;10.20;52.50;;;9.24;31.68;95763.88;10433968;28;2421;-86
2021/04/04 16:35:22;;;;;;;;;;;10.30;52.10;;;9.14;32.34;95758.47;10438191;28;2013;-84
2021/04/04 16:40:24;;;;;;;;;;;10.20;52.30;;;9.11;31.98;95756.31;10421129;28;1944;-85
2021/04/04 16:45:26;;;;;;;;;;;10.20;52.40;;;9.00;32.64;95757.34;10419370;28;1908;-86
2021/04/04 16:50:29;;;;;;;;;;;10.10;52.40;;;8.86;32.26;95757.84;10412248;28;1963;-87
2021/04/04 16:55:32;;;;;;;;;;;10.00;52.60;;;8.71;32.80;95748.94;10434624;28;2047;-87
2021/04/04 17:00:35;;;;;;;;;;;9.80;52.60;;;8.75;32.83;95755.38;10427760;28;1882;-87
2021/04/04 17:05:37;;;;;;;;;;;9.80;52.90;;;8.62;33.60;95756.69;10430949;28;1910;-88
2021/04/04 17:10:39;;;;;;;;;;;10.40;53.40;;;8.53;33.39;95742.19;10433996;28;1983;-85
2021/04/04 17:15:42;;;;;;;;;;;9.70;53.30;;;8.38;34.55;95748.25;10441034;28;1915;-87
2021/04/04 17:20:43;;;;;;;;;;;10.10;54.20;;;8.28;34.62;95745.50;10442658;28;1779;-88
2021/04/04 17:25:45;;;;;;;;;;;9.50;54.50;;;8.20;35.33;95749.44;10442503;28;1994;-88
2021/04/04 17:30:47;;;;;;;;;;;9.30;54.80;;;8.22;35.28;95743.88;10431509;28;2145;-88
2021/04/04 17:35:49;;;;;;;;;;;10.00;55.40;;;8.15;35.32;95745.97;10423925;28;1870;-85
2021/04/04 17:40:51;;;;;;;;;;;9.30;55.20;;;7.96;36.31;95748.25;10417566;28;1909;-88
2021/04/04 17:45:54;;;;;;;;;;;9.10;55.80;;;7.77;36.77;95747.84;10415412;28;1953;-86
2021/04/04 17:50:55;;;;;;;;;;;10.40;57.00;;;7.62;37.69;95748.50;10409868;28;2033;-87
2021/04/04 17:55:57;;;;;;;;;;;8.90;56.90;;;7.39;37.80;95747.00;10417400;28;2068;-87
2021/04/04 18:01:02;;;;;;;;;;;8.70;57.40;;;7.29;38.39;95742.34;10432069;28;2085;-87
2021/04/04 18:06:09;;;;;;;;;;;8.60;57.80;;;7.12;38.62;95744.31;10437925;28;1949;-86
2021/04/04 18:11:11;;;;;;;;;;;9.70;59.00;;;6.99;39.57;95740.16;10405716;28;2012;-87
2021/04/04 18:16:13;;;;;;;;;;;8.30;58.80;;;6.92;39.71;95746.78;10434489;28;2221;-87
2021/04/04 18:21:15;;;;;;;;;;;8.20;59.20;;;6.78;40.47;95746.38;10431122;28;1941;-85
2021/04/04 18:26:17;;;;;;;;;;;8.10;59.80;;;6.69;40.76;95738.00;10428543;28;1997;-87
2021/04/04 18:31:20;;;;;;;;;;;8.70;60.50;;;6.59;40.77;95748.53;10423362;28;2278;-87
2021/04/04 18:36:22;;;;;;;;;;;7.90;60.30;;;6.47;41.13;95748.66;10411129;28;1954;-87
2021/04/04 18:41:24;;;;;;;;;;;8.90;61.10;;;6.34;41.42;95756.22;10432462;28;1994;-87
2021/04/04 18:46:26;;;;;;;;;;;7.70;61.10;;;6.22;41.83;95756.34;10426416;28;2369;-87
2021/04/04 18:51:28;;;;;;;;;;;8.50;61.80;;;6.31;41.96;95746.88;10414951;28;1967;-87
2021/04/04 18:56:30;;;;;;;;;;;7.40;61.90;;;6.07;42.58;95748.94;10432801;28;2045;-87
2021/04/04 19:01:32;;;;;;;;;;;7.40;61.90;;;6.00;42.77;95750.16;10407234;28;2036;-88
2021/04/04 19:06:34;;;;;;;;;;;8.40;62.90;;;5.87;43.59;95759.28;10412195;28;1972;-86
2021/04/04 19:11:36;;;;;;;;;;;7.10;63.00;;;5.76;44.12;95746.84;10412374;28;2027;-87
2021/04/04 19:16:38;;;;;;;;;;;7.50;63.80;;;5.67;44.16;95749.13;10426350;28;2066;-86
2021/04/04 19:21:40;;;;;;;;;;;7.00;63.80;;;5.65;43.85;95753.88;10406409;28;2291;-87
2021/04/04 19:26:42;;;;;;;;;;;6.90;63.90;;;5.57;44.54;95749.75;10413566;28;2354;-86
2021/04/04 19:31:44;;;;;;;;;;;6.80;64.20;;;5.62;44.34;95754.38;10429090;28;2079;-87
2021/04/04 19:36:47;;;;;;;;;;;6.90;64.20;;;5.40;44.35;95747.06;10422798;28;2150;-86
2021/04/04 19:41:49;;;;;;;;;;;6.70;64.40;;;5.31;45.29;95745.06;10441009;28;1944;-86
2021/04/04 19:46:53;;;;;;;;;;;6.60;65.00;;;5.23;45.54;95740.94;10451740;28;2036;-86
2021/04/04 19:51:55;;;;;;;;;;;7.70;65.80;;;5.19;45.65;95741.66;10442812;28;2048;-86
2021/04/04 19:56:57;;;;;;;;;;;7.60;66.00;;;5.19;45.46;95744.31;10460494;28;1973;-87
2021/04/04 20:01:59;;;;;;;;;;;6.80;65.70;;;5.07;46.23;95736.38;10459472;28;1846;-86
2021/04/04 20:07:04;;;;;;;;;;;6.30;65.80;;;5.04;45.74;95737.69;10451130;28;1956;-85
2021/04/04 20:12:06;;;;;;;;;;;6.40;65.90;;;4.98;46.17;95732.50;10441624;28;1921;-85
2021/04/04 20:17:08;;;;;;;;;;;7.10;66.50;;;4.91;46.34;95726.50;10422248;28;2152;-88
2021/04/04 20:22:10;;;;;;;;;;;6.10;66.40;;;4.84;46.84;95716.81;10406545;28;2440;-86
2021/04/04 20:27:14;;;;;;;;;;;6.40;66.70;;;4.77;46.53;95716.16;10430033;28;2238;-87
2021/04/04 20:32:15;;;;;;;;;;;6.30;67.10;;;4.76;47.28;95719.03;10419739;28;1973;-87
2021/04/04 20:37:18;;;;;;;;;;;6.00;67.50;;;4.68;47.23;95701.59;10405319;28;1993;-85
2021/04/04 20:42:19;;;;;;;;;;;5.90;67.50;;;4.68;47.78;95709.56;10427425;28;2060;-87
2021/04/04 20:47:21;;;;;;;;;;;5.80;68.00;;;4.63;48.38;95706.81;10402726;28;2040;-82
2021/04/04 20:52:23;;;;;;;;;;;5.80;68.50;;;4.60;47.99;95701.97;10423484;28;2093;-85
2021/04/04 20:57:25;;;;;;;;;;;5.80;68.50;;;4.52;48.13;95695.19;10433020;28;1958;-84
2021/04/04 21:02:27;;;;;;;;;;;5.70;68.60;;;4.49;48.79;95700.16;10436340;28;1722;-85
2021/04/04 21:07:29;;;;;;;;;;;6.20;69.40;;;4.48;49.09;95693.22;10418532;28;1960;-83
2021/04/04 21:12:31;;;;;;;;;;;5.70;69.50;;;4.41;49.62;95685.38;10438896;28;2077;-82
2021/04/04 21:17:32;;;;;;;;;;;5.70;69.80;;;4.38;50.08;95669.88;10455218;28;1993;-85
2021/04/04 21:22:37;;;;;;;;;;;5.60;70.30;;;4.35;50.38;95673.00;10462280;28;2054;-85
2021/04/04 21:27:39;;;;;;;;;;;5.60;70.80;;;4.44;49.95;95668.09;10459164;28;1956;-87
2021/04/04 21:32:41;;;;;;;;;;;5.60;70.50;;;4.34;50.04;95666.88;10472276;28;1768;-87
2021/04/04 21:37:43;;;;;;;;;;;6.10;70.80;;;4.31;50.09;95662.03;10442809;28;2002;-86
2021/04/04 21:42:46;;;;;;;;;;;6.10;71.20;;;4.27;50.07;95676.06;10417323;28;1955;-86
2021/04/04 21:47:48;;;;;;;;;;;5.50;71.00;;;4.29;50.63;95668.63;10422478;28;1990;-83
2021/04/04 21:52:51;;;;;;;;;;;6.40;71.40;;;4.27;50.07;95655.56;10426466;28;1879;-86
2021/04/04 21:57:54;;;;;;;;;;;5.50;71.20;;;4.35;50.18;95649.06;10448197;28;2044;-85
2021/04/04 22:02:55;;;;;;;;;;;5.90;71.80;;;4.30;50.88;95639.13;10452869;28;1855;-86
2021/04/04 22:07:57;;;;;;;;;;;6.00;72.20;;;4.24;51.09;95640.06;10441422;28;1962;-85
2021/04/04 22:13:01;;;;;;;;;;;5.90;72.30;;;4.23;50.74;95632.31;10463275;28;1441;-87
2021/04/04 22:18:04;;;;;;;;;;;5.40;72.10;;;4.25;50.65;95631.03;10435749;28;2087;-83
2021/04/04 22:23:06;;;;;;;;;;;5.40;72.10;;;4.19;51.57;95625.84;10430694;28;2394;-85
2021/04/04 22:28:08;;;;;;;;;;;5.40;72.30;;;4.20;51.04;95620.31;10426558;28;1962;-84
2021/04/04 22:33:11;;;;;;;;;;;5.30;72.30;;;4.13;51.27;95619.63;10440862;28;1977;-85
2021/04/04 22:38:12;;;;;;;;;;;5.50;72.60;;;4.15;51.32;95612.22;10415414;28;1915;-84
2021/04/04 22:43:14;;;;;;;;;;;5.30;72.70;;;4.16;51.44;95608.53;10418034;28;2313;-85
2021/04/04 22:48:16;;;;;;;;;;;5.60;72.90;;;4.02;51.67;95604.53;10400037;28;1926;-84
2021/04/04 22:53:18;;;;;;;;;;;6.40;73.50;;;4.07;51.50;95592.13;10420806;28;1913;-85
2021/04/04 22:58:20;;;;;;;;;;;5.10;73.20;;;4.00;51.98;95583.47;10399285;28;1969;-84
2021/04/04 23:03:22;;;;;;;;;;;5.20;73.40;;;4.01;52.09;95581.63;10425447;28;1516;-85
2021/04/04 23:08:24;;;;;;;;;;;5.10;73.40;;;4.08;51.59;95582.31;10431766;28;1977;-85
2021/04/04 23:13:26;;;;;;;;;;;5.60;73.70;;;3.98;51.63;95574.13;10410363;28;2040;-85
2021/04/04 23:18:28;;;;;;;;;;;6.30;74.20;;;4.02;51.78;95572.63;10426426;28;1974;-85
2021/04/04 23:23:30;;;;;;;;;;;5.10;73.80;;;3.92;52.71;95565.22;10415445;28;1808;-86
2021/04/04 23:28:31;;;;;;;;;;;5.00;73.80;;;3.81;52.40;95563.41;10409806;28;2144;-85
2021/04/04 23:33:34;;;;;;;;;;;5.00;74.00;;;3.69;53.11;95558.16;10411032;28;1956;-85